sensor_id;sensor_type;location;lat;lon;timestamp;pressure;altitude;pressure_sealevel;temperature;humidity
73651;BME280;61944;52.538;6.108;2023-12-20T05:46:12;101121.06;;;6.91;100.00
73651;BME280;61944;52.538;6.108;2023-12-20T05:48:37;101119.53;;;6.82;100.00
73651;BME280;61944;52.538;6.108;2023-12-20T05:51:03;101119.41;;;6.90;100.00
73651;BME280;61944;52.538;6.108;2023-12-20T05:53:28;101110.59;;;6.88;100.00
73651;BME280;61944;52.538;6.108;2023-12-20T05:55:53;101119.28;;;6.87;100.00
73651;BME280;61944;52.538;6.108;2023-12-20T05:58:19;101107.50;;;6.90;100.00
73651;BME280;61944;52.538;6.108;2023-12-20T06:00:44;101118.63;;;6.90;100.00
73651;BME280;61944;52.538;6.108;2023-12-20T06:03:09;101115.50;;;6.91;100.00
73651;BME280;61944;52.538;6.108;2023-12-20T06:05:35;101109.81;;;6.88;100.00
73651;BME280;61944;52.538;6.108;2023-12-20T06:08:00;101108.63;;;6.89;100.00
73651;BME280;61944;52.538;6.108;2023-12-20T06:10:28;101105.06;;;7.01;100.00
73651;BME280;61944;52.538;6.108;2023-12-20T06:12:53;101113.97;;;6.94;100.00
73651;BME280;61944;52.538;6.108;2023-12-20T06:15:19;101115.72;;;6.99;100.00
73651;BME280;61944;52.538;6.108;2023-12-20T06:17:45;101123.72;;;7.00;100.00
73651;BME280;61944;52.538;6.108;2023-12-20T06:20:12;101109.81;;;7.00;100.00
73651;BME280;61944;52.538;6.108;2023-12-20T06:22:38;101103.31;;;7.08;100.00
73651;BME280;61944;52.538;6.108;2023-12-20T06:25:04;101095.53;;;7.02;100.00
73651;BME280;61944;52.538;6.108;2023-12-20T06:27:30;101093.56;;;7.02;100.00
73651;BME280;61944;52.538;6.108;2023-12-20T06:29:57;101106.31;;;7.03;100.00
73651;BME280;61944;52.538;6.108;2023-12-20T06:32:22;101096.81;;;7.04;100.00
73651;BME280;61944;52.538;6.108;2023-12-20T06:34:48;101093.78;;;7.09;100.00
73651;BME280;61944;52.538;6.108;2023-12-20T06:37:14;101093.66;;;7.06;100.00
73651;BME280;61944;52.538;6.108;2023-12-20T06:39:40;101098.56;;;7.09;100.00
73651;BME280;61944;52.538;6.108;2023-12-20T06:42:06;101107.72;;;7.09;100.00
73651;BME280;61944;52.538;6.108;2023-12-20T06:44:31;101114.47;;;7.08;100.00
73651;BME280;61944;52.538;6.108;2023-12-20T06:46:57;101112.44;;;7.33;100.00
73651;BME280;61944;52.538;6.108;2023-12-20T06:49:22;101113.50;;;7.17;100.00
73651;BME280;61944;52.538;6.108;2023-12-20T06:51:48;101104.59;;;7.11;100.00
73651;BME280;61944;52.538;6.108;2023-12-20T06:54:13;101102.59;;;7.11;100.00
73651;BME280;61944;52.538;6.108;2023-12-20T06:56:39;101106.66;;;7.14;100.00
73651;BME280;61944;52.538;6.108;2023-12-20T06:59:04;101101.69;;;7.07;100.00
73651;BME280;61944;52.538;6.108;2023-12-20T07:01:29;101095.44;;;7.10;100.00
73651;BME280;61944;52.538;6.108;2023-12-20T07:03:54;101096.13;;;7.07;100.00
73651;BME280;61944;52.538;6.108;2023-12-20T07:06:20;101091.69;;;7.19;100.00
73651;BME280;61944;52.538;6.108;2023-12-20T07:08:45;101091.59;;;7.15;100.00
73651;BME280;61944;52.538;6.108;2023-12-20T07:11:11;101089.50;;;7.12;100.00
73651;BME280;61944;52.538;6.108;2023-12-20T07:13:36;101085.66;;;7.17;100.00
73651;BME280;61944;52.538;6.108;2023-12-20T07:16:02;101082.78;;;7.13;100.00
73651;BME280;61944;52.538;6.108;2023-12-20T07:18:28;101071.66;;;7.13;100.00
73651;BME280;61944;52.538;6.108;2023-12-20T07:20:53;101079.78;;;8.15;100.00
73651;BME280;61944;52.538;6.108;2023-12-20T07:23:19;101073.66;;;7.53;100.00
73651;BME280;61944;52.538;6.108;2023-12-20T07:25:45;101081.81;;;7.33;100.00
73651;BME280;61944;52.538;6.108;2023-12-20T07:28:10;101074.50;;;7.29;100.00
73651;BME280;61944;52.538;6.108;2023-12-20T07:30:36;101061.31;;;7.26;100.00
73651;BME280;61944;52.538;6.108;2023-12-20T07:33:01;101072.44;;;7.26;100.00
73651;BME280;61944;52.538;6.108;2023-12-20T07:35:27;101067.22;;;7.24;100.00
73651;BME280;61944;52.538;6.108;2023-12-20T07:37:53;101064.09;;;7.26;100.00
73651;BME280;61944;52.538;6.108;2023-12-20T07:40:18;101067.78;;;7.30;100.00
73651;BME280;61944;52.538;6.108;2023-12-20T07:42:44;101066.06;;;7.25;100.00
73651;BME280;61944;52.538;6.108;2023-12-20T07:45:09;101062.69;;;7.32;100.00
73651;BME280;61944;52.538;6.108;2023-12-20T07:47:35;101073.81;;;7.32;100.00
73651;BME280;61944;52.538;6.108;2023-12-20T07:50:01;101088.34;;;7.25;100.00
73651;BME280;61944;52.538;6.108;2023-12-20T07:52:28;101079.38;;;7.32;100.00
73651;BME280;61944;52.538;6.108;2023-12-20T07:54:54;101092.13;;;7.33;100.00
73651;BME280;61944;52.538;6.108;2023-12-20T07:57:19;101094.47;;;7.31;100.00
73651;BME280;61944;52.538;6.108;2023-12-20T07:59:46;101099.34;;;7.34;100.00
73651;BME280;61944;52.538;6.108;2023-12-20T08:02:11;101097.03;;;7.36;100.00
73651;BME280;61944;52.538;6.108;2023-12-20T08:04:36;101107.00;;;7.37;100.00
73651;BME280;61944;52.538;6.108;2023-12-20T08:07:02;101098.75;;;7.41;100.00
73651;BME280;61944;52.538;6.108;2023-12-20T08:09:28;101094.69;;;7.38;100.00
73651;BME280;61944;52.538;6.108;2023-12-20T08:11:53;101105.84;;;7.38;100.00
73651;BME280;61944;52.538;6.108;2023-12-20T08:14:18;101097.13;;;7.40;100.00
73651;BME280;61944;52.538;6.108;2023-12-20T08:16:44;101108.16;;;7.48;100.00
73651;BME280;61944;52.538;6.108;2023-12-20T08:19:09;101102.31;;;7.53;100.00
73651;BME280;61944;52.538;6.108;2023-12-20T08:21:34;101111.28;;;7.47;100.00
73651;BME280;61944;52.538;6.108;2023-12-20T08:24:00;101099.78;;;7.48;100.00
73651;BME280;61944;52.538;6.108;2023-12-20T08:26:28;101104.66;;;7.51;100.00
73651;BME280;61944;52.538;6.108;2023-12-20T08:28:53;101091.28;;;7.57;100.00
73651;BME280;61944;52.538;6.108;2023-12-20T08:31:19;101094.53;;;7.59;100.00
73651;BME280;61944;52.538;6.108;2023-12-20T08:33:45;101088.84;;;7.56;100.00
73651;BME280;61944;52.538;6.108;2023-12-20T08:36:11;101077.09;;;7.62;100.00
73651;BME280;61944;52.538;6.108;2023-12-20T08:38:36;101085.81;;;7.61;100.00
73651;BME280;61944;52.538;6.108;2023-12-20T08:41:03;101087.09;;;7.63;100.00
73651;BME280;61944;52.538;6.108;2023-12-20T08:43:30;101083.94;;;7.65;100.00
73651;BME280;61944;52.538;6.108;2023-12-20T08:45:56;101089.06;;;7.63;100.00
73651;BME280;61944;52.538;6.108;2023-12-20T08:48:21;101084.84;;;7.69;100.00
73651;BME280;61944;52.538;6.108;2023-12-20T08:50:47;101094.38;;;7.68;100.00
73651;BME280;61944;52.538;6.108;2023-12-20T08:53:14;101101.34;;;7.74;100.00
73651;BME280;61944;52.538;6.108;2023-12-20T08:55:40;101089.28;;;7.70;100.00
73651;BME280;61944;52.538;6.108;2023-12-20T08:58:06;101095.31;;;7.72;100.00
73651;BME280;61944;52.538;6.108;2023-12-20T09:00:33;101088.44;;;7.69;100.00
73651;BME280;61944;52.538;6.108;2023-12-20T09:02:59;101103.19;;;7.82;100.00
73651;BME280;61944;52.538;6.108;2023-12-20T09:05:24;101105.63;;;7.71;100.00
73651;BME280;61944;52.538;6.108;2023-12-20T09:07:50;101094.00;;;7.69;100.00
73651;BME280;61944;52.538;6.108;2023-12-20T09:10:15;101098.78;;;7.69;100.00
73651;BME280;61944;52.538;6.108;2023-12-20T09:12:41;101088.81;;;7.68;100.00
73651;BME280;61944;52.538;6.108;2023-12-20T09:15:08;101083.72;;;7.70;100.00
73651;BME280;61944;52.538;6.108;2023-12-20T09:17:33;101087.75;;;7.72;100.00
73651;BME280;61944;52.538;6.108;2023-12-20T09:19:59;101094.84;;;7.70;100.00
73651;BME280;61944;52.538;6.108;2023-12-20T09:22:25;101088.09;;;7.71;100.00
73651;BME280;61944;52.538;6.108;2023-12-20T09:24:50;101098.56;;;7.74;100.00
73651;BME280;61944;52.538;6.108;2023-12-20T09:27:16;101093.44;;;7.76;100.00
73651;BME280;61944;52.538;6.108;2023-12-20T09:29:41;101092.97;;;7.74;100.00
73651;BME280;61944;52.538;6.108;2023-12-20T09:32:06;101090.66;;;7.76;100.00
73651;BME280;61944;52.538;6.108;2023-12-20T09:34:33;101097.03;;;7.77;100.00
73651;BME280;61944;52.538;6.108;2023-12-20T09:36:58;101093.06;;;7.78;100.00
73651;BME280;61944;52.538;6.108;2023-12-20T09:39:23;101091.91;;;7.79;100.00
73651;BME280;61944;52.538;6.108;2023-12-20T09:42:04;101103.53;;;7.81;100.00
73651;BME280;61944;52.538;6.108;2023-12-20T09:44:30;101108.84;;;7.86;100.00
73651;BME280;61944;52.538;6.108;2023-12-20T09:46:57;101098.53;;;7.86;100.00
73651;BME280;61944;52.538;6.108;2023-12-20T09:49:22;101104.09;;;7.86;100.00
73651;BME280;61944;52.538;6.108;2023-12-20T09:51:50;101098.53;;;7.86;100.00
73651;BME280;61944;52.538;6.108;2023-12-20T09:54:20;101102.56;;;7.89;100.00
73651;BME280;61944;52.538;6.108;2023-12-20T09:56:46;101112.53;;;7.90;100.00
73651;BME280;61944;52.538;6.108;2023-12-20T09:59:12;101115.44;;;7.93;100.00
73651;BME280;61944;52.538;6.108;2023-12-20T10:01:39;101107.06;;;7.93;100.00
73651;BME280;61944;52.538;6.108;2023-12-20T10:04:09;101097.03;;;8.05;100.00
73651;BME280;61944;52.538;6.108;2023-12-20T10:06:43;101103.88;;;8.07;100.00
73651;BME280;61944;52.538;6.108;2023-12-20T10:09:10;101103.66;;;8.00;100.00
73651;BME280;61944;52.538;6.108;2023-12-20T10:11:37;101107.53;;;7.96;100.00
73651;BME280;61944;52.538;6.108;2023-12-20T10:14:03;101105.19;;;7.98;100.00
73651;BME280;61944;52.538;6.108;2023-12-20T10:16:29;101119.72;;;8.03;100.00
73651;BME280;61944;52.538;6.108;2023-12-20T10:18:55;101117.38;;;8.05;100.00
73651;BME280;61944;52.538;6.108;2023-12-20T10:21:25;101116.75;;;8.12;100.00
73651;BME280;61944;52.538;6.108;2023-12-20T10:23:54;101118.25;;;8.09;100.00
73651;BME280;61944;52.538;6.108;2023-12-20T10:26:21;101123.75;;;8.06;100.00
73651;BME280;61944;52.538;6.108;2023-12-20T10:28:46;101116.53;;;8.05;100.00
73651;BME280;61944;52.538;6.108;2023-12-20T10:33:53;101105.44;;;7.92;100.00
73651;BME280;61944;52.538;6.108;2023-12-20T10:36:18;101110.81;;;7.85;100.00
73651;BME280;61944;52.538;6.108;2023-12-20T10:38:44;101115.25;;;7.86;100.00
73651;BME280;61944;52.538;6.108;2023-12-20T10:41:10;101106.63;;;7.91;100.00
73651;BME280;61944;52.538;6.108;2023-12-20T10:43:36;101125.88;;;7.97;100.00
73651;BME280;61944;52.538;6.108;2023-12-20T10:46:03;101130.44;;;7.89;100.00
73651;BME280;61944;52.538;6.108;2023-12-20T10:48:30;101156.97;;;7.46;100.00
73651;BME280;61944;52.538;6.108;2023-12-20T10:50:57;101143.31;;;7.04;100.00
73651;BME280;61944;52.538;6.108;2023-12-20T10:53:24;101133.44;;;6.82;100.00
73651;BME280;61944;52.538;6.108;2023-12-20T10:55:52;101134.97;;;7.04;100.00
73651;BME280;61944;52.538;6.108;2023-12-20T10:58:22;101139.72;;;7.03;100.00
73651;BME280;61944;52.538;6.108;2023-12-20T11:00:50;101140.41;;;7.12;100.00
73651;BME280;61944;52.538;6.108;2023-12-20T11:03:21;101135.88;;;7.08;100.00
73651;BME280;61944;52.538;6.108;2023-12-20T11:06:26;101127.78;;;7.03;100.00
73651;BME280;61944;52.538;6.108;2023-12-20T11:08:52;101117.69;;;6.98;100.00
73651;BME280;61944;52.538;6.108;2023-12-20T11:11:35;101119.31;;;7.11;100.00
73651;BME280;61944;52.538;6.108;2023-12-20T11:14:07;101116.19;;;7.13;100.00
73651;BME280;61944;52.538;6.108;2023-12-20T11:16:37;101121.41;;;7.02;100.00
73651;BME280;61944;52.538;6.108;2023-12-20T11:19:05;101118.38;;;7.07;100.00
73651;BME280;61944;52.538;6.108;2023-12-20T11:21:31;101109.31;;;7.23;100.00
73651;BME280;61944;52.538;6.108;2023-12-20T11:23:56;101115.13;;;7.18;100.00
73651;BME280;61944;52.538;6.108;2023-12-20T11:26:28;101114.31;;;6.80;100.00
73651;BME280;61944;52.538;6.108;2023-12-20T11:29:17;101124.63;;;6.80;100.00
73651;BME280;61944;52.538;6.108;2023-12-20T11:31:40;101100.06;;;6.82;100.00
73651;BME280;61944;52.538;6.108;2023-12-20T11:34:13;101105.25;;;6.96;100.00
73651;BME280;61944;52.538;6.108;2023-12-20T11:36:39;101092.41;;;6.91;100.00
73651;BME280;61944;52.538;6.108;2023-12-20T11:39:04;101104.47;;;6.95;100.00
73651;BME280;61944;52.538;6.108;2023-12-20T11:41:34;101107.50;;;7.02;100.00
73651;BME280;61944;52.538;6.108;2023-12-20T11:43:59;101094.03;;;6.92;100.00
73651;BME280;61944;52.538;6.108;2023-12-20T11:46:26;101092.41;;;6.91;100.00
73651;BME280;61944;52.538;6.108;2023-12-20T11:48:51;101090.78;;;7.02;100.00
73651;BME280;61944;52.538;6.108;2023-12-20T11:51:16;101085.09;;;7.11;100.00
73651;BME280;61944;52.538;6.108;2023-12-20T11:53:42;101077.09;;;7.09;100.00
73651;BME280;61944;52.538;6.108;2023-12-20T11:56:08;101077.34;;;7.04;100.00
73651;BME280;61944;52.538;6.108;2023-12-20T11:58:34;101065.28;;;7.00;100.00
73651;BME280;61944;52.538;6.108;2023-12-20T12:00:59;101069.34;;;7.03;100.00
73651;BME280;61944;52.538;6.108;2023-12-20T12:03:25;101072.91;;;7.03;100.00
73651;BME280;61944;52.538;6.108;2023-12-20T12:05:51;101079.41;;;6.95;100.00
73651;BME280;61944;52.538;6.108;2023-12-20T12:08:17;101065.47;;;7.20;100.00
73651;BME280;61944;52.538;6.108;2023-12-20T12:10:43;101049.50;;;6.92;100.00
73651;BME280;61944;52.538;6.108;2023-12-20T12:13:09;101073.72;;;7.04;100.00
73651;BME280;61944;52.538;6.108;2023-12-20T12:15:36;101073.72;;;7.04;100.00
73651;BME280;61944;52.538;6.108;2023-12-20T12:18:02;101061.09;;;7.06;100.00
73651;BME280;61944;52.538;6.108;2023-12-20T12:20:27;101059.69;;;7.12;100.00
73651;BME280;61944;52.538;6.108;2023-12-20T12:25:24;101049.47;;;7.17;100.00
73651;BME280;61944;52.538;6.108;2023-12-20T12:27:50;101036.00;;;7.19;100.00
73651;BME280;61944;52.538;6.108;2023-12-20T12:30:16;101033.03;;;6.99;100.00
73651;BME280;61944;52.538;6.108;2023-12-20T12:32:44;101050.19;;;6.89;100.00
73651;BME280;61944;52.538;6.108;2023-12-20T12:35:09;101045.81;;;7.00;100.00
73651;BME280;61944;52.538;6.108;2023-12-20T12:37:37;101041.63;;;7.06;100.00
73651;BME280;61944;52.538;6.108;2023-12-20T12:40:05;101013.78;;;7.06;100.00
73651;BME280;61944;52.538;6.108;2023-12-20T12:42:30;101022.22;;;7.10;100.00
73651;BME280;61944;52.538;6.108;2023-12-20T12:44:56;101014.72;;;6.98;100.00
73651;BME280;61944;52.538;6.108;2023-12-20T12:47:21;101007.97;;;7.11;100.00
73651;BME280;61944;52.538;6.108;2023-12-20T12:49:47;100998.44;;;7.12;100.00
73651;BME280;61944;52.538;6.108;2023-12-20T12:52:14;100998.91;;;7.15;100.00
73651;BME280;61944;52.538;6.108;2023-12-20T12:54:39;100995.84;;;7.32;100.00
73651;BME280;61944;52.538;6.108;2023-12-20T12:57:05;100998.59;;;7.44;100.00
73651;BME280;61944;52.538;6.108;2023-12-20T12:59:30;100991.44;;;7.31;100.00
73651;BME280;61944;52.538;6.108;2023-12-20T13:01:55;100986.94;;;7.26;100.00
73651;BME280;61944;52.538;6.108;2023-12-20T13:04:22;100981.06;;;7.16;100.00
73651;BME280;61944;52.538;6.108;2023-12-20T13:06:47;100985.41;;;7.29;100.00
73651;BME280;61944;52.538;6.108;2023-12-20T13:09:12;100984.22;;;7.42;100.00
73651;BME280;61944;52.538;6.108;2023-12-20T13:11:38;100970.94;;;7.23;100.00
73651;BME280;61944;52.538;6.108;2023-12-20T13:14:03;100979.59;;;7.34;100.00
73651;BME280;61944;52.538;6.108;2023-12-20T13:16:29;100972.84;;;7.35;100.00
73651;BME280;61944;52.538;6.108;2023-12-20T13:18:54;100971.09;;;7.43;100.00
73651;BME280;61944;52.538;6.108;2023-12-20T13:21:21;100981.13;;;7.60;100.00
73651;BME280;61944;52.538;6.108;2023-12-20T13:23:46;100965.06;;;7.69;100.00
73651;BME280;61944;52.538;6.108;2023-12-20T13:26:11;100962.66;;;7.67;100.00
73651;BME280;61944;52.538;6.108;2023-12-20T13:28:37;100964.88;;;7.62;100.00
73651;BME280;61944;52.538;6.108;2023-12-20T13:31:02;100972.34;;;7.73;100.00
73651;BME280;61944;52.538;6.108;2023-12-20T13:33:28;100958.06;;;7.75;100.00
73651;BME280;61944;52.538;6.108;2023-12-20T13:35:53;100951.16;;;7.85;100.00
73651;BME280;61944;52.538;6.108;2023-12-20T13:38:18;100952.75;;;7.86;100.00
73651;BME280;61944;52.538;6.108;2023-12-20T13:40:44;100940.72;;;7.82;100.00
73651;BME280;61944;52.538;6.108;2023-12-20T13:43:09;100936.78;;;7.83;100.00
73651;BME280;61944;52.538;6.108;2023-12-20T13:45:37;100933.44;;;7.77;100.00
73651;BME280;61944;52.538;6.108;2023-12-20T13:48:02;100932.81;;;7.84;100.00
73651;BME280;61944;52.538;6.108;2023-12-20T13:50:27;100918.34;;;7.78;100.00
73651;BME280;61944;52.538;6.108;2023-12-20T13:52:53;100924.72;;;7.79;100.00
73651;BME280;61944;52.538;6.108;2023-12-20T13:55:18;100930.75;;;7.81;100.00
73651;BME280;61944;52.538;6.108;2023-12-20T13:57:47;100933.19;;;7.82;100.00
73651;BME280;61944;52.538;6.108;2023-12-20T14:00:14;100923.38;;;7.88;100.00
73651;BME280;61944;52.538;6.108;2023-12-20T14:02:42;100932.91;;;7.87;100.00
73651;BME280;61944;52.538;6.108;2023-12-20T14:05:11;100935.69;;;7.87;100.00
73651;BME280;61944;52.538;6.108;2023-12-20T14:07:37;100936.94;;;7.90;100.00
73651;BME280;61944;52.538;6.108;2023-12-20T14:10:03;100933.81;;;7.91;100.00
73651;BME280;61944;52.538;6.108;2023-12-20T14:12:28;100932.00;;;7.83;100.00
73651;BME280;61944;52.538;6.108;2023-12-20T14:14:54;100922.03;;;7.82;100.00
73651;BME280;61944;52.538;6.108;2023-12-20T14:17:21;100926.16;;;7.88;100.00
73651;BME280;61944;52.538;6.108;2023-12-20T14:19:46;100931.31;;;7.86;100.00
73651;BME280;61944;52.538;6.108;2023-12-20T14:22:11;100940.28;;;7.96;100.00
73651;BME280;61944;52.538;6.108;2023-12-20T14:24:41;100937.50;;;7.96;100.00
73651;BME280;61944;52.538;6.108;2023-12-20T14:27:06;100936.25;;;7.93;100.00
73651;BME280;61944;52.538;6.108;2023-12-20T14:29:31;100943.25;;;8.03;100.00
73651;BME280;61944;52.538;6.108;2023-12-20T14:31:57;100931.03;;;7.91;100.00
73651;BME280;61944;52.538;6.108;2023-12-20T14:34:22;100928.69;;;7.93;100.00
73651;BME280;61944;52.538;6.108;2023-12-20T14:36:49;100927.72;;;8.02;100.00
73651;BME280;61944;52.538;6.108;2023-12-20T14:39:14;100927.50;;;7.94;100.00
73651;BME280;61944;52.538;6.108;2023-12-20T14:41:40;100941.09;;;7.96;100.00
73651;BME280;61944;52.538;6.108;2023-12-20T14:44:05;100933.19;;;7.98;100.00
73651;BME280;61944;52.538;6.108;2023-12-20T14:46:31;100937.16;;;7.97;100.00
73651;BME280;61944;52.538;6.108;2023-12-20T14:48:56;100933.28;;;8.02;100.00
73651;BME280;61944;52.538;6.108;2023-12-20T14:51:21;100941.53;;;7.98;100.00
73651;BME280;61944;52.538;6.108;2023-12-20T14:53:47;100945.06;;;7.95;100.00
73651;BME280;61944;52.538;6.108;2023-12-20T14:56:12;100932.09;;;8.03;100.00
73651;BME280;61944;52.538;6.108;2023-12-20T14:58:38;100942.63;;;7.93;100.00
73651;BME280;61944;52.538;6.108;2023-12-20T15:01:03;100941.44;;;7.94;100.00
73651;BME280;61944;52.538;6.108;2023-12-20T15:03:29;100952.13;;;7.92;100.00
73651;BME280;61944;52.538;6.108;2023-12-20T15:05:55;100949.19;;;8.01;100.00
73651;BME280;61944;52.538;6.108;2023-12-20T15:08:24;100945.22;;;8.02;100.00
73651;BME280;61944;52.538;6.108;2023-12-20T15:10:49;100932.03;;;7.99;100.00
73651;BME280;61944;52.538;6.108;2023-12-20T15:13:15;100930.16;;;8.03;100.00
73651;BME280;61944;52.538;6.108;2023-12-20T15:15:41;100924.56;;;8.03;100.00
73651;BME280;61944;52.538;6.108;2023-12-20T15:18:06;100930.84;;;8.00;100.00
73651;BME280;61944;52.538;6.108;2023-12-20T15:20:31;100923.66;;;7.99;100.00
73651;BME280;61944;52.538;6.108;2023-12-20T15:22:59;100916.56;;;8.02;100.00
73651;BME280;61944;52.538;6.108;2023-12-20T15:25:30;100908.72;;;7.91;100.00
73651;BME280;61944;52.538;6.108;2023-12-20T15:27:55;100915.22;;;7.96;100.00
73651;BME280;61944;52.538;6.108;2023-12-20T15:30:21;100912.66;;;7.90;100.00
73651;BME280;61944;52.538;6.108;2023-12-20T15:32:47;100918.78;;;7.96;100.00
73651;BME280;61944;52.538;6.108;2023-12-20T15:35:12;100907.28;;;7.98;100.00
73651;BME280;61944;52.538;6.108;2023-12-20T15:37:38;100914.03;;;7.97;100.00
73651;BME280;61944;52.538;6.108;2023-12-20T15:40:07;100905.84;;;7.88;100.00
73651;BME280;61944;52.538;6.108;2023-12-20T15:42:33;100903.16;;;7.91;100.00
73651;BME280;61944;52.538;6.108;2023-12-20T15:45:01;100897.13;;;7.89;100.00
73651;BME280;61944;52.538;6.108;2023-12-20T15:47:27;100897.41;;;8.00;100.00
73651;BME280;61944;52.538;6.108;2023-12-20T15:49:52;100890.56;;;7.98;100.00
73651;BME280;61944;52.538;6.108;2023-12-20T15:52:18;100882.00;;;7.90;100.00
73651;BME280;61944;52.538;6.108;2023-12-20T15:54:43;100884.53;;;7.96;100.00
73651;BME280;61944;52.538;6.108;2023-12-20T15:57:09;100881.84;;;7.83;100.00
73651;BME280;61944;52.538;6.108;2023-12-20T15:59:35;100892.47;;;7.93;100.00
73651;BME280;61944;52.538;6.108;2023-12-20T16:02:01;100885.69;;;7.94;100.00
73651;BME280;61944;52.538;6.108;2023-12-20T16:04:27;100876.34;;;8.03;100.00
73651;BME280;61944;52.538;6.108;2023-12-20T16:06:53;100882.84;;;7.91;100.00
73651;BME280;61944;52.538;6.108;2023-12-20T16:09:19;100875.00;;;7.97;100.00
73651;BME280;61944;52.538;6.108;2023-12-20T16:11:44;100859.09;;;7.97;100.00
73651;BME280;61944;52.538;6.108;2023-12-20T16:14:10;100859.28;;;8.04;100.00
73651;BME280;61944;52.538;6.108;2023-12-20T16:16:38;100848.75;;;7.98;100.00
73651;BME280;61944;52.538;6.108;2023-12-20T16:19:04;100852.81;;;8.00;100.00
73651;BME280;61944;52.538;6.108;2023-12-20T16:21:29;100863.41;;;7.94;100.00
73651;BME280;61944;52.538;6.108;2023-12-20T16:23:55;100856.03;;;8.02;100.00
73651;BME280;61944;52.538;6.108;2023-12-20T16:26:20;100843.44;;;7.92;100.00
73651;BME280;61944;52.538;6.108;2023-12-20T16:28:45;100840.19;;;7.90;100.00
73651;BME280;61944;52.538;6.108;2023-12-20T16:31:10;100842.13;;;7.86;100.00
73651;BME280;61944;52.538;6.108;2023-12-20T16:33:36;100827.81;;;7.88;100.00
73651;BME280;61944;52.538;6.108;2023-12-20T16:36:01;100835.81;;;7.89;100.00
73651;BME280;61944;52.538;6.108;2023-12-20T16:38:27;100820.81;;;7.78;100.00
73651;BME280;61944;52.538;6.108;2023-12-20T16:40:52;100814.41;;;7.78;100.00
73651;BME280;61944;52.538;6.108;2023-12-20T16:43:17;100809.97;;;8.24;100.00
73651;BME280;61944;52.538;6.108;2023-12-20T16:45:43;100800.94;;;7.96;100.00
73651;BME280;61944;52.538;6.108;2023-12-20T16:48:08;100797.53;;;7.86;100.00
73651;BME280;61944;52.538;6.108;2023-12-20T16:50:33;100790.06;;;7.74;100.00
73651;BME280;61944;52.538;6.108;2023-12-20T16:52:59;100788.72;;;7.84;100.00
73651;BME280;61944;52.538;6.108;2023-12-20T16:55:24;100779.03;;;7.78;100.00
73651;BME280;61944;52.538;6.108;2023-12-20T16:57:50;100779.91;;;7.82;100.00
73651;BME280;61944;52.538;6.108;2023-12-20T17:00:15;100779.81;;;7.79;100.00
73651;BME280;61944;52.538;6.108;2023-12-20T17:02:41;100769.47;;;7.79;100.00
73651;BME280;61944;52.538;6.108;2023-12-20T17:05:08;100771.13;;;7.80;100.00
73651;BME280;61944;52.538;6.108;2023-12-20T17:07:34;100764.66;;;7.76;100.00
73651;BME280;61944;52.538;6.108;2023-12-20T17:09:59;100761.47;;;7.78;100.00
73651;BME280;61944;52.538;6.108;2023-12-20T17:12:25;100761.47;;;7.78;100.00
73651;BME280;61944;52.538;6.108;2023-12-20T17:14:50;100750.28;;;7.74;100.00
73651;BME280;61944;52.538;6.108;2023-12-20T17:17:15;100736.25;;;7.70;100.00
73651;BME280;61944;52.538;6.108;2023-12-20T17:19:41;100730.97;;;7.65;100.00
73651;BME280;61944;52.538;6.108;2023-12-20T17:22:07;100734.59;;;7.69;100.00
73651;BME280;61944;52.538;6.108;2023-12-20T17:24:33;100733.38;;;7.67;100.00
73651;BME280;61944;52.538;6.108;2023-12-20T17:26:59;100729.31;;;7.64;100.00
73651;BME280;61944;52.538;6.108;2023-12-20T17:29:24;100719.72;;;7.62;100.00
73651;BME280;61944;52.538;6.108;2023-12-20T17:31:49;100714.94;;;7.62;100.00
73651;BME280;61944;52.538;6.108;2023-12-20T17:34:15;100713.84;;;7.67;100.00
73651;BME280;61944;52.538;6.108;2023-12-20T17:36:40;100709.19;;;7.71;100.00
73651;BME280;61944;52.538;6.108;2023-12-20T17:39:06;100703.09;;;7.65;100.00
73651;BME280;61944;52.538;6.108;2023-12-20T17:41:32;100698.16;;;7.59;100.00
73651;BME280;61944;52.538;6.108;2023-12-20T17:44:01;100695.09;;;7.64;100.00
73651;BME280;61944;52.538;6.108;2023-12-20T17:46:26;100695.00;;;7.60;100.00
73651;BME280;61944;52.538;6.108;2023-12-20T17:48:52;100683.97;;;7.64;100.00
73651;BME280;61944;52.538;6.108;2023-12-20T17:51:17;100686.84;;;7.67;100.00
73651;BME280;61944;52.538;6.108;2023-12-20T17:53:42;100683.22;;;7.67;100.00
73651;BME280;61944;52.538;6.108;2023-12-20T17:56:08;100680.44;;;7.67;100.00
73651;BME280;61944;52.538;6.108;2023-12-20T17:58:33;100666.06;;;7.65;100.00
73651;BME280;61944;52.538;6.108;2023-12-20T18:00:58;100670.91;;;7.68;100.00
73651;BME280;61944;52.538;6.108;2023-12-20T18:03:24;100669.72;;;7.69;100.00
73651;BME280;61944;52.538;6.108;2023-12-20T18:05:50;100665.06;;;7.73;100.00
73651;BME280;61944;52.538;6.108;2023-12-20T18:08:15;100654.66;;;7.70;100.00
73651;BME280;61944;52.538;6.108;2023-12-20T18:10:41;100648.25;;;7.69;100.00
73651;BME280;61944;52.538;6.108;2023-12-20T18:13:06;100646.00;;;7.75;100.00
73651;BME280;61944;52.538;6.108;2023-12-20T18:15:32;100645.28;;;7.78;100.00
73651;BME280;61944;52.538;6.108;2023-12-20T18:17:57;100635.72;;;7.79;100.00
73651;BME280;61944;52.538;6.108;2023-12-20T18:20:22;100641.75;;;7.81;100.00
73651;BME280;61944;52.538;6.108;2023-12-20T18:22:48;100630.16;;;7.79;100.00
73651;BME280;61944;52.538;6.108;2023-12-20T18:25:13;100624.31;;;7.84;100.00
73651;BME280;61944;52.538;6.108;2023-12-20T18:27:38;100617.03;;;7.80;100.00
73651;BME280;61944;52.538;6.108;2023-12-20T18:30:04;100613.09;;;7.81;100.00
73651;BME280;61944;52.538;6.108;2023-12-20T18:32:33;100610.81;;;7.86;100.00
73651;BME280;61944;52.538;6.108;2023-12-20T18:34:59;100619.97;;;7.87;100.00